Página principal
METAR-TAF:

METAR-TAF

Aeroportos :

Tenerife, Espanha

Aeroporto de Tenerife Norte

latitude: 28-28N, longitude: 016-19W, altura: 632 m

Observação actual do tempo

O boletim foi feito há 37 minutos, às 13:00 UTC
Vento 6 kt de es-sudeste, variando entre este e sul
Temperatura 29°C
Humidade 11%
Pressão 1022 hPa
Visibilidade 10 km ou mais
sem nuvens abaixo de 1500 metros e sem cumulonimbus

METAR: GCXO 121300Z 12006KT 080V170 CAVOK 29/M04 Q1022 NOSIG

Hora: 14:37 (13:37 UTC)

Previsão

O boletim foi feito há 5 horas e 37 minutos, às 08:00 UTC
Previsão válida de 12 às 09 UTC a 13 às 09 UTC
Vento 5 kt com direcção variável
Visibilidade: 8000 m
Probabilidade 40% :
Temporariamente
de 12 às 09 UTC a 12 às 17 UTC
Vento 10 kt de sudeste
Tornando-se
de 12 às 18 UTC a 12 às 20 UTC
Vento 10 kt de noroeste

TAF: GCXO 120800Z 1209/1309 VRB05KT 8000 NSC TX29/1214Z TN20/1306Z PROB40 TEMPO 1209/1217 13010KT BECMG 1218/1220 32010KT

Observações e previsões do tempo de mais de 4000 aeroportos (mensagens METAR e TAF).

As estações disponíveis são os pontos amarelos e vermelhos sobre o mapa.

Mova o rato sobre o mapa para ver o nome da estação.

Depois clique no ponto para visualizar as observações e previsões meteorológicas.

Para alterar o mapa : clique nos botões verdes com uma cruz preta para aumentar o zoom; no botão verde com uma pitada de zoom; ou nas setas verdes para mapas adjacentes.


METAR-TAF: